createdAt,value
2022-08-03T04:02:29.321Z,22.10
2022-08-03T04:05:14.804Z,22.30
2022-08-03T04:08:14.569Z,21.80
2022-08-03T04:11:01.621Z,21.60
2022-08-03T04:13:34.691Z,21.70
2022-08-03T04:16:05.308Z,21.90
2022-08-03T04:18:39.338Z,22.30
2022-08-03T04:21:12.487Z,22.20
2022-08-03T04:23:47.261Z,22.20
2022-08-03T04:26:20.748Z,21.90
2022-08-03T04:28:51.273Z,22.30
2022-08-03T04:31:23.954Z,22.60
2022-08-03T04:33:55.425Z,22.60
2022-08-03T04:36:27.549Z,22.90
2022-08-03T04:39:03.952Z,22.90
2022-08-03T04:41:33.320Z,22.80
2022-08-03T04:44:28.435Z,23.00
2022-08-03T04:46:58.967Z,22.70
2022-08-03T04:49:31.011Z,23.30
2022-08-03T04:51:59.782Z,23.50
2022-08-03T04:54:27.828Z,23.50
2022-08-03T04:56:55.958Z,23.30
2022-08-03T04:59:23.991Z,23.50
2022-08-03T05:01:52.116Z,23.70
2022-08-03T05:04:20.542Z,23.40
2022-08-03T05:06:55.028Z,23.70
2022-08-03T05:09:50.796Z,24.00
2022-08-03T05:12:12.627Z,24.00
2022-08-03T05:14:40.716Z,23.70
2022-08-03T05:17:09.468Z,24.10
2022-08-03T05:19:37.536Z,24.10
2022-08-03T05:22:07.301Z,24.20
2022-08-03T05:24:35.434Z,23.70
2022-08-03T05:27:03.534Z,23.80
2022-08-03T05:29:31.569Z,24.10
2022-08-03T05:32:01.184Z,24.20
2022-08-03T05:34:31.956Z,24.40
2022-08-03T05:37:00.086Z,24.20
2022-08-03T05:39:29.457Z,23.80
2022-08-03T05:41:57.567Z,24.50
2022-08-03T05:44:26.186Z,24.10
2022-08-03T05:46:54.766Z,23.80
2022-08-03T05:49:22.856Z,23.80
2022-08-03T05:52:00.260Z,24.10
2022-08-03T05:54:56.736Z,24.60
2022-08-03T05:57:25.889Z,24.00
2022-08-03T05:59:58.333Z,24.60
2022-08-03T06:02:27.308Z,24.80
2022-08-03T06:04:55.683Z,24.60
2022-08-03T06:07:24.126Z,24.90
2022-08-03T06:10:34.410Z,25.00
2022-08-03T06:12:42.060Z,25.50
2022-08-03T06:15:11.801Z,25.30
2022-08-03T06:17:47.256Z,25.20
2022-08-03T06:20:17.900Z,25.20
2022-08-03T06:22:50.994Z,25.50
2022-08-03T06:25:30.753Z,25.50
2022-08-03T06:28:00.445Z,25.40
2022-08-03T06:30:28.676Z,25.80
2022-08-03T06:32:56.823Z,25.90
2022-08-03T06:35:25.280Z,26.10
2022-08-03T06:37:53.447Z,26.00
2022-08-03T06:40:29.040Z,25.80
2022-08-03T06:43:00.168Z,26.30
2022-08-03T06:45:32.014Z,26.30
2022-08-03T06:48:05.091Z,26.20
2022-08-03T06:50:34.135Z,26.20
2022-08-03T06:53:05.263Z,25.90
2022-08-03T06:55:34.220Z,26.30
2022-08-03T06:58:11.729Z,26.10
2022-08-03T07:00:39.996Z,26.60
2022-08-03T07:03:08.084Z,27.40
2022-08-03T07:05:36.227Z,27.10
2022-08-03T07:08:04.579Z,27.00
2022-08-03T07:10:32.667Z,27.20
2022-08-03T07:13:00.791Z,27.40
2022-08-03T07:15:54.047Z,27.50
2022-08-03T07:18:29.148Z,27.50
2022-08-03T07:20:58.231Z,27.40
2022-08-03T07:23:26.408Z,27.90
2022-08-03T07:25:54.570Z,27.60
2022-08-03T07:28:22.744Z,28.20
2022-08-03T07:30:52.524Z,28.00
2022-08-03T07:33:20.863Z,27.80
2022-08-03T07:35:48.884Z,28.00
2022-08-03T07:38:20.883Z,28.30
2022-08-03T07:40:49.570Z,28.60
2022-08-03T07:43:17.731Z,28.60
2022-08-03T07:45:45.803Z,28.60
2022-08-03T07:48:15.238Z,28.60
2022-08-03T07:50:43.342Z,29.30
2022-08-03T07:53:11.431Z,28.90
2022-08-03T07:55:39.866Z,28.70
2022-08-03T07:58:12.185Z,28.90
2022-08-03T08:00:40.695Z,29.00
2022-08-03T08:03:08.920Z,29.10
2022-08-03T08:05:38.532Z,28.90
2022-08-03T08:08:07.631Z,29.20
2022-08-03T08:10:36.348Z,29.10
2022-08-03T08:13:05.468Z,29.10
2022-08-03T08:15:33.960Z,29.50
2022-08-03T08:18:03.597Z,29.30
2022-08-03T08:20:34.969Z,29.20
2022-08-03T08:23:19.954Z,29.70
2022-08-03T08:25:57.901Z,29.50
2022-08-03T08:28:32.127Z,29.50
2022-08-03T08:31:01.682Z,29.70
2022-08-03T08:33:47.907Z,29.50
2022-08-03T08:36:18.658Z,29.40
2022-08-03T08:38:48.360Z,30.00
2022-08-03T08:41:17.612Z,29.70
2022-08-03T08:43:45.679Z,29.50
2022-08-03T08:46:23.983Z,29.70
2022-08-03T08:48:54.237Z,30.10
2022-08-03T08:51:24.838Z,30.00
2022-08-03T08:54:14.896Z,29.70
2022-08-03T08:56:45.295Z,29.90
2022-08-03T08:59:14.209Z,30.10
2022-08-03T09:01:42.379Z,30.20
2022-08-03T09:04:11.486Z,30.10
2022-08-03T09:06:39.646Z,29.80
2022-08-03T09:09:09.117Z,29.80
2022-08-03T09:12:20.037Z,30.00
2022-08-03T09:15:07.415Z,30.40
2022-08-03T09:17:41.834Z,30.90
2022-08-03T09:20:11.197Z,30.40
2022-08-03T09:22:54.801Z,30.10
2022-08-03T09:25:30.677Z,30.50
2022-08-03T09:28:10.374Z,30.40
2022-08-03T09:30:41.247Z,30.50
2022-08-03T09:33:12.035Z,30.50
2022-08-03T09:35:59.995Z,30.80
2022-08-03T09:38:28.065Z,30.20
2022-08-03T09:41:00.858Z,30.50
2022-08-03T09:43:47.745Z,30.50
2022-08-03T09:46:16.159Z,30.90
2022-08-03T09:48:44.155Z,30.90
2022-08-03T09:51:32.903Z,30.70
2022-08-03T09:54:03.988Z,31.30
2022-08-03T09:56:44.416Z,31.20
2022-08-03T09:59:25.509Z,31.00
2022-08-03T10:01:54.596Z,31.50
2022-08-03T10:04:23.879Z,31.40
2022-08-03T10:07:08.387Z,31.80
2022-08-03T10:09:36.914Z,32.40
2022-08-03T10:12:13.420Z,32.60
2022-08-03T10:14:45.577Z,32.00
2022-08-03T10:17:13.943Z,31.90
2022-08-03T10:19:42.407Z,33.20
2022-08-03T10:22:15.824Z,32.80
2022-08-03T10:24:53.419Z,33.50
2022-08-03T10:27:25.097Z,33.40
2022-08-03T10:30:01.445Z,34.30
2022-08-03T10:32:33.913Z,34.40
2022-08-03T10:35:20.075Z,34.10
2022-08-03T10:37:59.936Z,34.10
2022-08-03T10:40:49.268Z,34.60
2022-08-03T10:43:22.878Z,35.20
2022-08-03T10:45:52.827Z,34.80
2022-08-03T10:48:22.269Z,35.00
2022-08-03T10:50:51.704Z,35.70
2022-08-03T10:53:36.636Z,35.40
2022-08-03T10:56:41.457Z,36.40
2022-08-03T10:59:12.265Z,37.00
2022-08-03T11:02:00.183Z,37.60
2022-08-03T11:04:30.791Z,37.40
2022-08-03T11:07:23.189Z,37.30
2022-08-03T11:09:53.783Z,37.40
2022-08-03T11:12:30.564Z,38.20
2022-08-03T11:15:03.947Z,38.00
2022-08-03T11:17:46.311Z,38.70
2022-08-03T11:20:46.813Z,39.90
2022-08-03T11:23:16.535Z,38.90
2022-08-03T11:26:17.259Z,39.20
2022-08-03T11:28:48.300Z,40.00
2022-08-03T11:31:50.738Z,39.50
2022-08-03T11:34:21.030Z,39.90
2022-08-03T11:37:25.203Z,40.60
2022-08-03T11:39:57.120Z,40.80
2022-08-03T11:42:48.267Z,41.00
2022-08-03T11:45:17.893Z,41.10
2022-08-03T11:47:50.725Z,42.00
2022-08-03T11:50:21.463Z,41.90
2022-08-03T11:52:51.054Z,41.80
2022-08-03T11:55:21.982Z,44.30
2022-08-03T11:59:17.419Z,45.50
2022-08-03T12:00:40.649Z,47.20
2022-08-03T12:03:12.110Z,46.80
2022-08-03T12:05:51.715Z,45.30
2022-08-03T12:08:32.619Z,46.50
2022-08-03T12:11:04.502Z,45.40
2022-08-03T12:14:45.212Z,46.10
2022-08-03T12:16:29.688Z,48.60
2022-08-03T12:19:00.247Z,49.30
2022-08-03T12:21:30.748Z,51.00
2022-08-03T12:24:01.501Z,51.80
2022-08-03T12:26:30.748Z,51.10
2022-08-03T12:28:58.890Z,48.90
2022-08-03T12:31:27.292Z,48.70
2022-08-03T12:34:04.120Z,49.10
2022-08-03T12:36:37.454Z,50.10
2022-08-03T12:39:08.372Z,51.20
2022-08-03T12:41:39.080Z,49.20
2022-08-03T12:44:09.428Z,50.90
2022-08-03T12:46:42.838Z,47.30
2022-08-03T12:49:19.009Z,49.90
2022-08-03T12:52:07.480Z,52.00
2022-08-03T12:54:36.046Z,55.40
2022-08-03T12:57:08.025Z,51.80
2022-08-03T12:59:41.355Z,51.30
2022-08-03T13:02:17.700Z,49.60
2022-08-03T13:04:48.249Z,50.30
2022-08-03T13:07:19.475Z,50.80
2022-08-03T13:09:51.148Z,50.50
2022-08-03T13:12:21.478Z,52.40
2022-08-03T13:14:51.838Z,52.60
2022-08-03T13:17:20.896Z,52.50
2022-08-03T13:19:50.463Z,53.10
2022-08-03T13:22:22.125Z,52.00
2022-08-03T13:24:53.012Z,55.70
2022-08-03T13:28:01.270Z,55.40
2022-08-03T13:30:11.169Z,54.70
2022-08-03T13:32:39.996Z,52.20
2022-08-03T13:35:09.634Z,51.10
2022-08-03T13:37:39.654Z,52.80
2022-08-03T13:40:11.640Z,49.80
2022-08-03T13:42:39.948Z,49.00
2022-08-03T13:45:09.704Z,50.30
2022-08-03T13:47:37.829Z,52.00
2022-08-03T13:50:06.676Z,54.10
2022-08-03T13:52:37.740Z,56.30
2022-08-03T13:55:08.508Z,55.10
2022-08-03T13:58:03.080Z,53.40
2022-08-03T14:00:28.578Z,54.20
2022-08-03T14:03:13.284Z,54.70
2022-08-03T14:05:43.156Z,54.60
2022-08-03T14:08:13.745Z,56.10
2022-08-03T14:10:44.758Z,51.50
2022-08-03T14:13:18.031Z,50.60
2022-08-03T14:15:50.972Z,57.00
2022-08-03T14:18:27.832Z,54.40
2022-08-03T14:21:05.874Z,51.10
2022-08-03T14:23:38.583Z,49.90
2022-08-03T14:26:07.710Z,50.20
2022-08-03T14:28:36.187Z,51.70
2022-08-03T14:31:08.306Z,52.90
2022-08-03T14:33:53.744Z,52.60
2022-08-03T14:36:21.909Z,50.40
2022-08-03T14:38:51.415Z,50.30
2022-08-03T14:41:20.471Z,52.80
2022-08-03T14:44:01.677Z,54.70
2022-08-03T14:46:31.945Z,57.40
2022-08-03T14:50:28.402Z,55.90
2022-08-03T14:51:53.633Z,52.90
2022-08-03T14:54:23.789Z,53.40
2022-08-03T14:56:52.261Z,51.10
2022-08-03T14:59:20.307Z,53.20
2022-08-03T15:02:02.450Z,54.60
2022-08-03T15:04:33.098Z,53.10
2022-08-03T15:07:01.614Z,55.30
2022-08-03T15:09:31.056Z,54.60
2022-08-03T15:11:59.332Z,53.50
2022-08-03T15:14:28.414Z,51.80
2022-08-03T15:17:01.755Z,55.90
2022-08-03T15:20:00.723Z,55.40
2022-08-03T15:22:20.667Z,52.30
2022-08-03T15:24:56.141Z,48.60
2022-08-03T15:27:24.845Z,51.60
2022-08-03T15:30:05.427Z,53.80
2022-08-03T15:32:37.942Z,55.10
2022-08-03T15:35:07.264Z,52.80
2022-08-03T15:37:35.341Z,52.90
2022-08-03T15:40:06.161Z,55.30
2022-08-03T15:42:35.320Z,53.60
2022-08-03T15:45:03.559Z,52.60
2022-08-03T15:47:31.638Z,48.70
2022-08-03T15:49:59.690Z,48.00
2022-08-03T15:52:27.808Z,44.40
2022-08-03T15:54:55.831Z,44.10
2022-08-03T15:57:25.424Z,46.20
2022-08-03T15:59:53.549Z,49.20
2022-08-03T16:02:21.786Z,50.10
2022-08-03T16:04:49.894Z,49.40
2022-08-03T16:07:37.977Z,45.10
2022-08-03T16:10:07.181Z,43.80
2022-08-03T16:12:36.809Z,43.60
2022-08-03T16:15:05.732Z,44.70
2022-08-03T16:17:34.073Z,47.10
2022-08-03T16:20:04.150Z,49.80
2022-08-03T16:22:44.178Z,52.80
2022-08-03T16:25:16.120Z,53.40
2022-08-03T16:28:03.199Z,53.40
2022-08-03T16:30:34.993Z,51.30
2022-08-03T16:33:04.453Z,49.00
2022-08-03T16:35:32.659Z,49.70
2022-08-03T16:38:00.761Z,49.30
2022-08-03T16:40:29.034Z,48.30
2022-08-03T16:42:58.945Z,47.90
2022-08-03T16:45:27.457Z,44.90
2022-08-03T16:48:05.273Z,46.80
2022-08-03T16:50:35.947Z,44.90
2022-08-03T16:53:09.157Z,48.70
2022-08-03T16:55:48.664Z,49.10
2022-08-03T16:58:34.568Z,48.60
2022-08-03T17:01:22.283Z,48.70
2022-08-03T17:04:01.413Z,51.50
2022-08-03T17:06:34.381Z,50.90
2022-08-03T17:09:09.174Z,49.50
2022-08-03T17:11:43.994Z,50.20
2022-08-03T17:14:21.981Z,48.80
2022-08-03T17:16:54.144Z,46.10
2022-08-03T17:19:24.977Z,46.30
2022-08-03T17:22:04.172Z,47.20
2022-08-03T17:24:35.590Z,48.40
2022-08-03T17:28:42.420Z,46.20
2022-08-03T17:30:08.893Z,42.50
2022-08-03T17:32:42.356Z,40.70
2022-08-03T17:35:11.923Z,38.80
2022-08-03T17:37:58.364Z,39.50
2022-08-03T17:40:30.949Z,41.40
2022-08-03T17:43:00.160Z,39.80
2022-08-03T17:45:52.274Z,38.70
2022-08-03T17:48:18.416Z,39.40
2022-08-03T17:50:54.145Z,40.90
2022-08-03T17:53:30.610Z,41.00
2022-08-03T17:56:44.464Z,39.70
2022-08-03T17:59:16.461Z,39.10
2022-08-03T18:02:47.954Z,38.60
2022-08-03T18:05:21.868Z,38.20
2022-08-03T18:08:01.496Z,37.30
2022-08-03T18:10:35.901Z,36.90
2022-08-03T18:13:10.503Z,35.90
2022-08-03T18:15:44.250Z,36.00
2022-08-03T18:18:29.224Z,35.60
2022-08-03T18:21:06.850Z,34.60
2022-08-03T18:23:39.363Z,34.50
2022-08-03T18:26:12.386Z,34.00
2022-08-03T18:28:41.495Z,33.60
2022-08-03T18:31:12.683Z,33.30
2022-08-03T18:34:20.338Z,33.60
2022-08-03T18:36:55.818Z,33.60
2022-08-03T18:39:24.740Z,32.70
2022-08-03T18:41:52.966Z,31.90
2022-08-03T18:44:52.631Z,32.60
2022-08-03T18:47:52.171Z,32.30
2022-08-03T18:50:31.819Z,31.80
2022-08-03T18:53:16.643Z,31.60
2022-08-03T18:56:01.375Z,31.90
2022-08-03T18:58:42.019Z,31.60
2022-08-03T19:01:58.576Z,32.00
2022-08-03T19:04:15.447Z,31.90
2022-08-03T19:06:49.812Z,31.80
2022-08-03T19:09:31.832Z,31.70
2022-08-03T19:12:14.100Z,31.00
2022-08-03T19:15:03.205Z,30.60
2022-08-03T19:17:35.877Z,30.60
2022-08-03T19:20:10.190Z,30.80
2022-08-03T19:22:39.885Z,30.80
2022-08-03T19:25:14.085Z,31.00
2022-08-03T19:27:46.894Z,30.70
2022-08-03T19:30:32.438Z,30.40
2022-08-03T19:33:02.456Z,30.30
2022-08-03T19:35:51.473Z,30.30
2022-08-03T19:38:29.341Z,30.00
2022-08-03T19:41:03.555Z,29.90
2022-08-03T19:43:53.229Z,29.80
2022-08-03T19:46:31.095Z,29.60
2022-08-03T19:49:10.714Z,29.70
2022-08-03T19:52:01.084Z,29.50
2022-08-03T19:54:45.629Z,29.30
2022-08-03T19:57:25.880Z,28.90
2022-08-03T19:59:57.108Z,29.10
2022-08-03T20:02:26.104Z,28.80
2022-08-03T20:04:57.516Z,28.50
2022-08-03T20:07:26.837Z,28.60
2022-08-03T20:09:57.383Z,28.70
2022-08-03T20:12:28.586Z,28.60
2022-08-03T20:14:59.125Z,28.60
2022-08-03T20:17:54.469Z,28.50
2022-08-03T20:20:23.557Z,28.40
2022-08-03T20:22:58.050Z,28.40
2022-08-03T20:25:38.549Z,28.30
2022-08-03T20:28:14.138Z,27.90
2022-08-03T20:30:47.376Z,27.60
2022-08-03T20:33:18.886Z,28.00
2022-08-03T20:35:49.808Z,28.00
2022-08-03T20:38:19.486Z,27.90
2022-08-03T20:40:50.136Z,27.80
2022-08-03T20:43:20.075Z,27.90
2022-08-03T20:46:01.206Z,27.70
2022-08-03T20:48:37.678Z,27.70
2022-08-03T20:51:19.382Z,27.50
2022-08-03T20:53:59.810Z,27.40
2022-08-03T20:56:35.055Z,27.40
2022-08-03T20:59:06.986Z,27.40
